createdAt,value
2018-07-01T00:00:12.102Z,39.04
2018-07-01T00:00:52.561Z,38.66
2018-07-01T00:01:33.089Z,39.62
2018-07-01T00:02:13.614Z,40.42
2018-07-01T00:02:54.134Z,40.13
2018-07-01T00:03:34.653Z,39.94
2018-07-01T00:04:15.181Z,39.26
2018-07-01T00:04:55.724Z,38.76
2018-07-01T00:05:36.256Z,38.78
2018-07-01T00:06:16.782Z,40.32
2018-07-01T00:06:57.314Z,40.32
2018-07-01T00:07:37.830Z,39.94
2018-07-01T00:08:18.362Z,39.94
2018-07-01T00:08:58.880Z,39.26
2018-07-01T00:09:39.396Z,40.32
2018-07-01T00:10:19.913Z,40.23
2018-07-01T00:11:00.445Z,39.94
2018-07-01T00:11:40.947Z,40.52
2018-07-01T00:12:21.483Z,40.71
2018-07-01T00:13:02.009Z,40.23
2018-07-01T00:13:42.532Z,41
2018-07-01T00:14:23.062Z,41.97
2018-07-01T00:15:03.600Z,40.23
2018-07-01T00:15:44.125Z,38.97
2018-07-01T00:16:24.644Z,38.85
2018-07-01T00:17:05.176Z,38.95
2018-07-01T00:17:45.699Z,40.98
2018-07-01T00:18:26.229Z,40.01
2018-07-01T00:19:06.754Z,39.43
2018-07-01T00:19:47.276Z,40.11
2018-07-01T00:20:27.774Z,40.4
2018-07-01T00:21:08.305Z,39.24
2018-07-01T00:21:48.841Z,39.62
2018-07-01T00:22:29.350Z,40.2
2018-07-01T00:23:09.882Z,39.72
2018-07-01T00:23:50.408Z,41.27
2018-07-01T00:24:30.938Z,40.01
2018-07-01T00:25:11.451Z,39.92
2018-07-01T00:25:51.979Z,40.3
2018-07-01T00:26:32.510Z,39.62
2018-07-01T00:27:13.063Z,39.04
2018-07-01T00:27:53.583Z,40.2
2018-07-01T00:28:34.092Z,39.62
2018-07-01T00:29:14.631Z,39.53
2018-07-01T00:29:55.160Z,39.24
2018-07-01T00:30:35.690Z,39.41
2018-07-01T00:31:16.214Z,39.41
2018-07-01T00:31:56.744Z,39.51
2018-07-01T00:32:37.269Z,40.19
2018-07-01T00:33:17.810Z,39.9
2018-07-01T00:33:58.342Z,40.28
2018-07-01T00:34:38.879Z,40.11
2018-07-01T00:35:19.407Z,39.9
2018-07-01T00:35:59.940Z,40.28
2018-07-01T00:36:40.466Z,40.09
2018-07-01T00:37:20.987Z,39.9
2018-07-01T00:38:01.517Z,39.41
2018-07-01T00:38:42.057Z,39.9
2018-07-01T00:39:22.600Z,41.15
2018-07-01T00:40:03.122Z,40.98
2018-07-01T00:40:43.636Z,42.04
2018-07-01T00:41:24.151Z,40.19
2018-07-01T00:42:04.685Z,40.01
2018-07-01T00:42:45.227Z,40.5
2018-07-01T00:43:25.744Z,40.28
2018-07-01T00:44:06.263Z,39.99
2018-07-01T00:44:46.792Z,39.9
2018-07-01T00:45:27.307Z,40.19
2018-07-01T00:46:07.833Z,39.8
2018-07-01T00:46:48.370Z,40.28
2018-07-01T00:47:28.891Z,39.8
2018-07-01T00:48:09.429Z,40.28
2018-07-01T00:48:49.956Z,40.28
2018-07-01T00:49:30.481Z,39.9
2018-07-01T00:50:11.014Z,40.57
2018-07-01T00:50:51.550Z,40.57
2018-07-01T00:51:32.075Z,39.9
2018-07-01T00:52:12.601Z,40.28
2018-07-01T00:52:53.135Z,40.57
2018-07-01T00:53:33.654Z,40.47
2018-07-01T00:54:14.172Z,40.57
2018-07-01T00:54:54.693Z,40.19
2018-07-01T00:55:35.217Z,40.09
2018-07-01T00:56:15.744Z,39.7
2018-07-01T00:56:56.272Z,41.05
2018-07-01T00:57:36.798Z,41.05
2018-07-01T00:58:17.366Z,40.86
2018-07-01T00:58:57.892Z,40.77
2018-07-01T00:59:38.408Z,41.05
2018-07-01T01:00:18.946Z,41.54
2018-07-01T01:00:59.476Z,41.83
2018-07-01T01:01:40.040Z,41.83
2018-07-01T01:02:20.564Z,41.54
2018-07-01T01:03:01.096Z,40.19
2018-07-01T01:03:41.609Z,42.21
2018-07-01T01:04:22.134Z,40.88
2018-07-01T01:05:02.654Z,40.57
2018-07-01T01:05:43.177Z,41.44
2018-07-01T01:06:23.695Z,41.73
2018-07-01T01:07:04.236Z,42.12
2018-07-01T01:07:44.747Z,42.5
2018-07-01T01:08:25.269Z,42.12
2018-07-01T01:09:05.817Z,41.25
2018-07-01T01:09:46.341Z,42.21
2018-07-01T01:10:26.844Z,41.93
2018-07-01T01:11:07.366Z,42.7
2018-07-01T01:11:47.896Z,42.12
2018-07-01T01:12:28.418Z,40.67
2018-07-01T01:13:08.949Z,39.7
2018-07-01T01:13:49.464Z,40.09
2018-07-01T01:14:29.981Z,40.09
2018-07-01T01:15:10.495Z,40.57
2018-07-01T01:15:51.026Z,41.35
2018-07-01T01:16:31.543Z,40.96
2018-07-01T01:17:12.063Z,41.05
2018-07-01T01:17:52.593Z,41.15
2018-07-01T01:18:33.104Z,40.67
2018-07-01T01:19:13.624Z,41.03
2018-07-01T01:19:54.149Z,41.81
2018-07-01T01:20:34.665Z,41.05
2018-07-01T01:21:15.185Z,41.81
2018-07-01T01:21:55.755Z,43.28
2018-07-01T01:22:36.283Z,42.89
2018-07-01T01:23:16.809Z,41.93
2018-07-01T01:23:57.339Z,40.96
2018-07-01T01:24:37.860Z,42.19
2018-07-01T01:25:18.370Z,41.44
2018-07-01T01:25:58.920Z,42.02
2018-07-01T01:26:39.442Z,41.42
2018-07-01T01:27:19.975Z,41.25
2018-07-01T01:28:00.495Z,41.93
2018-07-01T01:28:41.017Z,41.91
2018-07-01T01:29:21.553Z,42.02
2018-07-01T01:30:02.069Z,42.21
2018-07-01T01:30:42.587Z,41.91
2018-07-01T01:31:23.114Z,43.57
2018-07-01T01:32:03.646Z,41.93
2018-07-01T01:32:44.170Z,41.42
2018-07-01T01:33:24.680Z,42.39
2018-07-01T01:34:05.205Z,41.81
2018-07-01T01:34:45.759Z,41.91
2018-07-01T01:35:26.272Z,41.91
2018-07-01T01:36:06.797Z,41.33
2018-07-01T01:36:47.304Z,41.33
2018-07-01T01:37:27.819Z,41.91
2018-07-01T01:38:08.349Z,41.81
2018-07-01T01:38:48.891Z,41.71
2018-07-01T01:39:29.405Z,41.71
2018-07-01T01:40:09.921Z,42
2018-07-01T01:40:50.441Z,41.81
2018-07-01T01:41:30.962Z,41.91
2018-07-01T01:42:11.483Z,42.58
2018-07-01T01:42:51.993Z,42.77
2018-07-01T01:43:32.520Z,43.35
2018-07-01T01:44:13.047Z,43.06
2018-07-01T01:44:53.564Z,42
2018-07-01T01:45:34.101Z,42.1
2018-07-01T01:46:14.616Z,42.1
2018-07-01T01:46:55.140Z,42.29
2018-07-01T01:47:35.658Z,42.97
2018-07-01T01:48:16.188Z,42.29
2018-07-01T01:48:56.708Z,42.19
2018-07-01T01:49:37.229Z,42
2018-07-01T01:50:17.753Z,41.81
2018-07-01T01:50:58.277Z,42.29
2018-07-01T01:51:38.797Z,42.29
2018-07-01T01:52:19.312Z,42.97
2018-07-01T01:52:59.849Z,42.58
2018-07-01T01:53:40.368Z,42.1
2018-07-01T01:54:20.920Z,42.1
2018-07-01T01:55:01.453Z,42.68
2018-07-01T01:55:41.977Z,43.35
2018-07-01T01:56:22.500Z,43.45
2018-07-01T01:57:03.032Z,43.35
2018-07-01T01:57:43.555Z,42.87
2018-07-01T01:58:24.083Z,42.58
2018-07-01T01:59:04.602Z,43.35
2018-07-01T01:59:45.145Z,43.16
2018-07-01T02:00:25.664Z,43.06
2018-07-01T02:01:06.194Z,42.58
2018-07-01T02:01:46.703Z,42.66
2018-07-01T02:02:27.226Z,42.56
2018-07-01T02:03:07.752Z,42.56
2018-07-01T02:03:48.281Z,42.39
2018-07-01T02:04:28.823Z,42.94
2018-07-01T02:05:09.341Z,42.94
2018-07-01T02:05:49.860Z,42.87
2018-07-01T02:06:30.396Z,43.74
2018-07-01T02:07:10.920Z,43.45
2018-07-01T02:07:51.439Z,43.72
2018-07-01T02:08:31.967Z,43.81
2018-07-01T02:09:12.489Z,43.14
2018-07-01T02:09:53.016Z,42.75
2018-07-01T02:10:33.541Z,42.94
2018-07-01T02:11:14.051Z,43.14
2018-07-01T02:11:54.572Z,42.94
2018-07-01T02:12:35.086Z,43.14
2018-07-01T02:13:15.603Z,43.24
2018-07-01T02:13:56.127Z,43.33
2018-07-01T02:14:36.655Z,43.43
2018-07-01T02:15:17.181Z,43.24
2018-07-01T02:15:57.701Z,43.62
2018-07-01T02:16:38.230Z,44.2
2018-07-01T02:17:18.760Z,43.24
2018-07-01T02:17:59.280Z,43.62
2018-07-01T02:18:39.803Z,43.52
2018-07-01T02:19:20.322Z,43.52
2018-07-01T02:20:00.830Z,43.91
2018-07-01T02:20:41.356Z,44.2
2018-07-01T02:21:21.866Z,44.01
2018-07-01T02:22:02.397Z,43.81
2018-07-01T02:22:42.911Z,43.81
2018-07-01T02:23:23.436Z,44.2
2018-07-01T02:24:03.967Z,44.39
2018-07-01T02:24:44.495Z,44.59
2018-07-01T02:25:25.005Z,44.01
2018-07-01T02:26:05.520Z,44.29
2018-07-01T02:26:46.030Z,44.39
2018-07-01T02:27:26.550Z,43.79
2018-07-01T02:28:07.066Z,44.87
2018-07-01T02:28:47.581Z,44.29
2018-07-01T02:29:28.099Z,44.2
2018-07-01T02:30:08.628Z,43.81
2018-07-01T02:30:49.168Z,44.68
2018-07-01T02:31:29.794Z,45.45
2018-07-01T02:32:10.308Z,44.1
2018-07-01T02:32:50.912Z,43.91
2018-07-01T02:33:31.437Z,43.98
2018-07-01T02:34:11.988Z,44.29
2018-07-01T02:34:52.484Z,44.59
2018-07-01T02:35:33.256Z,44.49
2018-07-01T02:36:13.528Z,44.49
2018-07-01T02:36:54.054Z,44.39
2018-07-01T02:37:34.590Z,44.78
2018-07-01T02:38:15.114Z,45.07
2018-07-01T02:38:55.634Z,44.87
2018-07-01T02:39:36.161Z,44.87
2018-07-01T02:40:16.678Z,44.49
2018-07-01T02:40:57.203Z,44.1
2018-07-01T02:41:37.725Z,44.59
2018-07-01T02:42:18.265Z,44.46
2018-07-01T02:42:58.803Z,44.78
2018-07-01T02:43:39.318Z,44.87
2018-07-01T02:44:19.843Z,44.59
2018-07-01T02:45:00.357Z,44.68
2018-07-01T02:45:40.881Z,44.46
2018-07-01T02:46:21.412Z,44.97
2018-07-01T02:47:01.933Z,44.97
2018-07-01T02:47:42.447Z,44.87
2018-07-01T02:48:22.972Z,45.26
2018-07-01T02:49:03.483Z,44.68
2018-07-01T02:49:44.015Z,44.59
2018-07-01T02:50:24.536Z,44.85
2018-07-01T02:51:05.061Z,44.85
2018-07-01T02:51:45.574Z,44.66
2018-07-01T02:52:26.095Z,44.66
2018-07-01T02:53:06.633Z,45.04
2018-07-01T02:53:47.192Z,44.95
2018-07-01T02:54:27.679Z,45.24
2018-07-01T02:55:08.207Z,45.14
2018-07-01T02:55:48.728Z,44.85
2018-07-01T02:56:29.266Z,45.04
2018-07-01T02:57:09.785Z,44.95
2018-07-01T02:57:50.313Z,44.95
2018-07-01T02:58:30.842Z,44.95
2018-07-01T02:59:11.372Z,45.14
2018-07-01T02:59:51.898Z,45.53
2018-07-01T03:00:32.422Z,45.43
2018-07-01T03:01:12.928Z,45.72
2018-07-01T03:01:53.456Z,46.49
2018-07-01T03:02:33.993Z,45.92
2018-07-01T03:03:14.517Z,45.24
2018-07-01T03:03:55.045Z,45.43
2018-07-01T03:04:35.598Z,45.24
2018-07-01T03:05:16.136Z,45.53
2018-07-01T03:05:56.681Z,45.34
2018-07-01T03:06:37.216Z,45.62
2018-07-01T03:07:17.740Z,45.62
2018-07-01T03:07:58.251Z,45.53
2018-07-01T03:08:38.784Z,45.62
2018-07-01T03:09:19.299Z,45.53
2018-07-01T03:09:59.821Z,45.43
2018-07-01T03:10:40.338Z,45.92
2018-07-01T03:11:20.877Z,45.43
2018-07-01T03:12:01.412Z,45.53
2018-07-01T03:12:41.938Z,45.53
2018-07-01T03:13:22.449Z,45.72
2018-07-01T03:14:02.975Z,45.34
2018-07-01T03:14:43.496Z,46.01
2018-07-01T03:15:24.022Z,46.01
2018-07-01T03:16:04.533Z,45.62
2018-07-01T03:16:45.057Z,45.53
2018-07-01T03:17:25.584Z,45.82
2018-07-01T03:18:06.105Z,45.62
2018-07-01T03:18:46.637Z,45.53
2018-07-01T03:19:27.156Z,45.62
2018-07-01T03:20:07.683Z,45.92
2018-07-01T03:20:48.197Z,45.72
2018-07-01T03:21:28.721Z,46.01
2018-07-01T03:22:09.241Z,45.92
2018-07-01T03:22:49.764Z,45.72
2018-07-01T03:23:30.301Z,45.89
2018-07-01T03:24:10.839Z,46.37
2018-07-01T03:24:51.366Z,46.28
2018-07-01T03:25:31.898Z,46.56
2018-07-01T03:26:12.418Z,46.66
2018-07-01T03:26:52.942Z,46.56
2018-07-01T03:27:33.455Z,46.28
2018-07-01T03:28:13.966Z,46.2
2018-07-01T03:28:54.487Z,46.69
2018-07-01T03:29:35.008Z,46.18
2018-07-01T03:30:15.527Z,46.49
2018-07-01T03:30:56.049Z,46.69
2018-07-01T03:31:36.589Z,46.56
2018-07-01T03:32:17.116Z,46.86
2018-07-01T03:32:57.652Z,46.2
2018-07-01T03:33:38.172Z,46.59
2018-07-01T03:34:18.695Z,46.11
2018-07-01T03:34:59.207Z,46.3
2018-07-01T03:35:39.733Z,46.49
2018-07-01T03:36:20.258Z,46.28
2018-07-01T03:37:00.775Z,46.78
2018-07-01T03:37:41.299Z,46.78
2018-07-01T03:38:21.822Z,46.56
2018-07-01T03:39:02.358Z,46.56
2018-07-01T03:39:42.887Z,46.37
2018-07-01T03:40:23.419Z,46.66
2018-07-01T03:41:03.929Z,46.47
2018-07-01T03:41:44.451Z,46.95
2018-07-01T03:42:24.981Z,46.95
2018-07-01T03:43:05.505Z,46.95
2018-07-01T03:43:46.026Z,46.76
2018-07-01T03:44:26.544Z,47.53
2018-07-01T03:45:07.071Z,47.63
2018-07-01T03:45:47.589Z,47.53
2018-07-01T03:46:28.107Z,46.56
2018-07-01T03:47:08.630Z,46.37
2018-07-01T03:47:49.167Z,46.86
2018-07-01T03:48:29.689Z,47.05
2018-07-01T03:49:10.209Z,46.47
2018-07-01T03:49:50.736Z,47.14
2018-07-01T03:50:31.269Z,46.86
2018-07-01T03:51:11.790Z,47.14
2018-07-01T03:51:52.305Z,47.14
2018-07-01T03:52:32.828Z,46.86
2018-07-01T03:53:13.368Z,47.24
2018-07-01T03:53:53.900Z,47.14
2018-07-01T03:54:34.422Z,46.93
2018-07-01T03:55:14.936Z,46.95
2018-07-01T03:55:55.453Z,47.24
2018-07-01T03:56:35.982Z,47.24
2018-07-01T03:57:16.495Z,47.34
2018-07-01T03:57:57.016Z,47.53
2018-07-01T03:58:37.527Z,47.63
2018-07-01T03:59:18.049Z,47.44
2018-07-01T03:59:58.565Z,47.05
2018-07-01T04:00:39.088Z,47.24
2018-07-01T04:01:19.603Z,47.53
2018-07-01T04:02:00.189Z,47.63
2018-07-01T04:02:40.717Z,47.14
2018-07-01T04:03:21.225Z,47.31
2018-07-01T04:04:01.751Z,47.24
2018-07-01T04:04:42.281Z,47.24
2018-07-01T04:05:22.806Z,47.7
2018-07-01T04:06:03.327Z,47.7
2018-07-01T04:06:43.856Z,47.22
2018-07-01T04:07:24.381Z,47.53
2018-07-01T04:08:04.901Z,47.51
2018-07-01T04:08:45.415Z,47.44
2018-07-01T04:09:25.933Z,47.53
2018-07-01T04:10:06.449Z,47.53
2018-07-01T04:10:46.966Z,47.34
2018-07-01T04:11:27.490Z,47.24
2018-07-01T04:12:08.001Z,47.44
2018-07-01T04:12:48.533Z,46.4
2018-07-01T04:13:29.065Z,46.4
2018-07-01T04:14:09.597Z,46.11
2018-07-01T04:14:50.117Z,46.4
2018-07-01T04:15:30.651Z,47.17
2018-07-01T04:16:11.182Z,46.97
2018-07-01T04:16:51.710Z,46.97
2018-07-01T04:17:32.232Z,47.36
2018-07-01T04:18:12.752Z,47.53
2018-07-01T04:18:53.276Z,47.34
2018-07-01T04:19:33.793Z,47.14
2018-07-01T04:20:14.317Z,47.53
2018-07-01T04:20:54.834Z,47.53
2018-07-01T04:21:35.357Z,47.17
2018-07-01T04:22:15.888Z,47.07
2018-07-01T04:22:56.427Z,47.53
2018-07-01T04:23:36.933Z,47.53
2018-07-01T04:24:17.460Z,47.53
2018-07-01T04:24:57.987Z,47.34
2018-07-01T04:25:38.490Z,47.34
2018-07-01T04:26:19.011Z,46.76
2018-07-01T04:26:59.548Z,47.53
2018-07-01T04:27:40.086Z,47.24
2018-07-01T04:28:20.599Z,47.24
2018-07-01T04:29:01.111Z,47.34
2018-07-01T04:29:41.642Z,47.53
2018-07-01T04:30:22.172Z,47.44
2018-07-01T04:31:02.717Z,47.34
2018-07-01T04:31:43.233Z,47.63
2018-07-01T04:32:23.758Z,47.63
2018-07-01T04:33:04.283Z,47.82
2018-07-01T04:33:44.801Z,47.99
2018-07-01T04:34:25.336Z,48.18
2018-07-01T04:35:05.863Z,48.28
2018-07-01T04:35:46.395Z,48.66
2018-07-01T04:36:26.913Z,48.57
2018-07-01T04:37:07.435Z,48.47
2018-07-01T04:37:47.959Z,48.11
2018-07-01T04:38:28.478Z,48.3
2018-07-01T04:39:09.000Z,48.3
2018-07-01T04:39:49.523Z,48.01
2018-07-01T04:40:30.054Z,47.72
2018-07-01T04:41:10.573Z,47.63
2018-07-01T04:41:51.088Z,47.63
2018-07-01T04:42:31.621Z,47.44
2018-07-01T04:43:12.147Z,47.82
2018-07-01T04:43:52.678Z,47.63
2018-07-01T04:44:33.195Z,47.53
2018-07-01T04:45:13.729Z,47.58
2018-07-01T04:45:54.240Z,45.96
2018-07-01T04:46:34.776Z,44.75
2018-07-01T04:47:15.299Z,42.03
2018-07-01T04:47:55.827Z,40.67
2018-07-01T04:48:36.348Z,40.56
2018-07-01T04:49:16.883Z,41.14
2018-07-01T04:49:57.379Z,41.97
2018-07-01T04:50:37.905Z,42.82
2018-07-01T04:51:18.419Z,43.66
2018-07-01T04:51:58.939Z,44.15
2018-07-01T04:52:39.453Z,44.7
2018-07-01T04:53:19.986Z,45.09
2018-07-01T04:54:00.509Z,45.65
2018-07-01T04:54:41.028Z,46.71
2018-07-01T04:55:21.714Z,46.33
2018-07-01T04:56:02.069Z,46.61
2018-07-01T04:56:42.587Z,46.42
2018-07-01T04:57:23.116Z,46.51
2018-07-01T04:58:03.648Z,46.73
2018-07-01T04:58:44.170Z,46.25
2018-07-01T04:59:24.691Z,45.69
2018-07-01T05:00:05.213Z,45.31
2018-07-01T05:00:45.744Z,45.11
2018-07-01T05:01:26.303Z,45.67
2018-07-01T05:02:06.877Z,45.75
2018-07-01T05:02:47.369Z,46.33
2018-07-01T05:03:27.895Z,46.23
2018-07-01T05:04:08.420Z,46.61
2018-07-01T05:04:48.942Z,46.23
2018-07-01T05:05:29.472Z,46.61
2018-07-01T05:06:09.986Z,47.45
2018-07-01T05:06:50.572Z,47.07
2018-07-01T05:07:31.095Z,47.17
2018-07-01T05:08:11.634Z,47.65
2018-07-01T05:08:52.128Z,47.07
2018-07-01T05:09:32.667Z,47.45
2018-07-01T05:10:13.200Z,47.75
2018-07-01T05:10:53.728Z,47.85
2018-07-01T05:11:34.254Z,47.85
2018-07-01T05:12:14.791Z,47.85
2018-07-01T05:12:55.331Z,47.75
2018-07-01T05:13:35.855Z,48.21
2018-07-01T05:14:16.392Z,48.03
2018-07-01T05:14:56.909Z,48.52
2018-07-01T05:15:37.426Z,47.85
2018-07-01T05:16:17.973Z,47.85
2018-07-01T05:16:58.499Z,48.42
2018-07-01T05:17:39.032Z,48.49
2018-07-01T05:18:19.555Z,48.3
2018-07-01T05:19:00.069Z,48.71
2018-07-01T05:19:40.592Z,47.58
2018-07-01T05:20:21.123Z,47.6
2018-07-01T05:21:01.651Z,46.71
2018-07-01T05:21:42.182Z,47.09
2018-07-01T05:22:22.689Z,47.45
2018-07-01T05:23:03.203Z,48.4
2018-07-01T05:23:43.723Z,48.49
2018-07-01T05:24:24.253Z,48.49
2018-07-01T05:25:04.769Z,48.21
2018-07-01T05:25:45.308Z,48.81
2018-07-01T05:26:25.825Z,48.9
2018-07-01T05:27:06.348Z,48.52
2018-07-01T05:27:46.875Z,48.71
2018-07-01T05:28:27.397Z,48.71
2018-07-01T05:29:07.934Z,48.42
2018-07-01T05:29:48.452Z,48.59
2018-07-01T05:30:28.972Z,48.61
2018-07-01T05:31:09.507Z,48.61
2018-07-01T05:31:50.034Z,48.61
2018-07-01T05:32:30.554Z,48.23
2018-07-01T05:33:11.077Z,48.42
2018-07-01T05:33:51.591Z,48.33
2018-07-01T05:34:32.107Z,48.23
2018-07-01T05:35:12.635Z,48.25
2018-07-01T05:35:53.149Z,48.64
2018-07-01T05:36:33.666Z,48.54
2018-07-01T05:37:14.185Z,48.64
2018-07-01T05:37:54.704Z,48.74
2018-07-01T05:38:35.238Z,48.83
2018-07-01T05:39:15.739Z,48.52
2018-07-01T05:39:56.261Z,48.33
2018-07-01T05:40:36.782Z,48.64
2018-07-01T05:41:17.304Z,48.33
2018-07-01T05:41:57.829Z,48.52
2018-07-01T05:42:38.356Z,48.52
2018-07-01T05:43:18.875Z,48.52
2018-07-01T05:43:59.395Z,48.42
2018-07-01T05:44:39.925Z,48.54
2018-07-01T05:45:20.450Z,48.52
2018-07-01T05:46:00.964Z,48.71
2018-07-01T05:46:41.483Z,48.61
2018-07-01T05:47:22.007Z,48.9
2018-07-01T05:48:02.526Z,48.9
2018-07-01T05:48:43.044Z,48.71
2018-07-01T05:49:23.589Z,48.9
2018-07-01T05:50:04.105Z,48.42
2018-07-01T05:50:44.623Z,48.61
2018-07-01T05:51:25.144Z,48.88
2018-07-01T05:52:05.670Z,49.27
2018-07-01T05:52:46.201Z,49.46
2018-07-01T05:53:26.757Z,49.19
2018-07-01T05:54:07.291Z,49.19
2018-07-01T05:54:47.817Z,49
2018-07-01T05:55:28.342Z,48.9
2018-07-01T05:56:08.869Z,48.83
2018-07-01T05:56:49.395Z,48.74
2018-07-01T05:57:29.913Z,48.61
2018-07-01T05:58:10.433Z,48.93
2018-07-01T05:58:50.968Z,48.93
2018-07-01T05:59:31.484Z,48.74
2018-07-01T06:00:12.024Z,48.74
2018-07-01T06:00:52.551Z,48.71
2018-07-01T06:01:33.067Z,48.74
2018-07-01T06:02:13.606Z,48.16
2018-07-01T06:02:54.133Z,48.28
2018-07-01T06:03:34.669Z,48.66
2018-07-01T06:04:15.193Z,48.47
2018-07-01T06:04:55.724Z,47.91
2018-07-01T06:05:36.239Z,47.72
2018-07-01T06:06:16.770Z,47.72
2018-07-01T06:06:57.295Z,47.36
2018-07-01T06:07:37.819Z,46.78
2018-07-01T06:08:18.329Z,46.88
2018-07-01T06:08:58.851Z,46.49
2018-07-01T06:09:39.375Z,45.93
2018-07-01T06:10:19.893Z,46.03
2018-07-01T06:11:00.414Z,45.93
2018-07-01T06:11:40.952Z,45.76
2018-07-01T06:12:21.476Z,45.57
2018-07-01T06:13:02.002Z,44.89
2018-07-01T06:13:42.517Z,45.18
2018-07-01T06:14:23.039Z,44.98
2018-07-01T06:15:03.563Z,44.89
2018-07-01T06:15:44.105Z,44.98
2018-07-01T06:16:24.708Z,44.4
2018-07-01T06:17:05.156Z,44.98
2018-07-01T06:17:45.690Z,44.7
2018-07-01T06:18:26.213Z,45.01
2018-07-01T06:19:06.728Z,44.53
2018-07-01T06:19:47.245Z,43.95
2018-07-01T06:20:27.770Z,44.23
2018-07-01T06:21:08.298Z,44.33
2018-07-01T06:21:48.840Z,44.04
2018-07-01T06:22:29.373Z,44.43
2018-07-01T06:23:09.896Z,44.13
2018-07-01T06:23:50.423Z,44.06
2018-07-01T06:24:30.995Z,43.27
2018-07-01T06:25:11.466Z,43.65
2018-07-01T06:25:51.981Z,43.38
2018-07-01T06:26:32.554Z,42.9
2018-07-01T06:27:13.043Z,42.61
2018-07-01T06:27:53.564Z,41.83
2018-07-01T06:28:34.094Z,41.93
2018-07-01T06:29:14.613Z,41.93
2018-07-01T06:29:55.118Z,42.03
2018-07-01T06:30:38.690Z,41.93
2018-07-01T06:31:20.021Z,42.03
2018-07-01T06:32:00.538Z,42.34
2018-07-01T06:32:41.938Z,42.34
2018-07-01T06:33:23.126Z,42.24
2018-07-01T06:34:03.648Z,42.05
2018-07-01T06:34:44.174Z,42.41
2018-07-01T06:35:24.704Z,42.44
2018-07-01T06:36:05.795Z,41.95
2018-07-01T06:36:46.357Z,42.03
2018-07-01T06:37:26.871Z,42.03
2018-07-01T06:38:07.952Z,41.55
2018-07-01T06:38:48.504Z,41.74
2018-07-01T06:39:29.900Z,41.86
2018-07-01T06:40:10.452Z,41.37
2018-07-01T06:40:50.979Z,41.56
2018-07-01T06:41:32.185Z,41.47
2018-07-01T06:42:12.720Z,41.2
2018-07-01T06:42:53.248Z,41.27
2018-07-01T06:43:33.770Z,41.1
2018-07-01T06:44:14.300Z,40.89
2018-07-01T06:44:54.827Z,41.27
2018-07-01T06:45:35.340Z,41.27
2018-07-01T06:46:15.862Z,40.91
2018-07-01T06:46:57.198Z,40.99
2018-07-01T06:47:37.730Z,41.08
2018-07-01T06:48:18.270Z,41.08
2018-07-01T06:48:59.584Z,41.27
2018-07-01T06:49:40.105Z,41.37
2018-07-01T06:50:21.226Z,41.37
2018-07-01T06:51:01.747Z,41.37
2018-07-01T06:51:42.278Z,41.37
2018-07-01T06:52:23.302Z,41.3
2018-07-01T06:53:03.827Z,40.99
2018-07-01T06:53:44.363Z,41
2018-07-01T06:54:24.893Z,40.91
2018-07-01T06:55:06.082Z,40.81
2018-07-01T06:55:46.588Z,39.94
2018-07-01T06:56:27.126Z,40.61
2018-07-01T06:57:08.609Z,40.61
2018-07-01T06:57:49.134Z,41.2
2018-07-01T06:58:29.654Z,41.2
2018-07-01T06:59:10.180Z,41.3
2018-07-01T06:59:51.520Z,40.91
2018-07-01T07:00:32.023Z,41
2018-07-01T07:01:14.139Z,40.91
2018-07-01T07:01:53.729Z,40.42
2018-07-01T07:02:34.259Z,40.25
2018-07-01T07:03:15.588Z,40.54
2018-07-01T07:03:56.107Z,40.64
2018-07-01T07:04:36.644Z,40.64
2018-07-01T07:05:17.809Z,40.73
2018-07-01T07:05:58.549Z,40.34
2018-07-01T07:06:39.229Z,40.54
2018-07-01T07:07:19.750Z,40.83
2018-07-01T07:08:01.276Z,40.05
2018-07-01T07:08:41.706Z,40.61
2018-07-01T07:09:23.081Z,40.52
2018-07-01T07:10:03.602Z,40.44
2018-07-01T07:10:44.117Z,40.73
2018-07-01T07:11:24.638Z,40.25
2018-07-01T07:12:05.171Z,40.44
2018-07-01T07:12:46.211Z,40.44
2018-07-01T07:13:26.729Z,40.44
2018-07-01T07:14:07.251Z,40.44
2018-07-01T07:14:47.766Z,40.34
2018-07-01T07:15:28.297Z,40.13
2018-07-01T07:16:09.633Z,40.54
2018-07-01T07:16:50.153Z,40.83
2018-07-01T07:17:31.217Z,40.15
2018-07-01T07:18:11.736Z,40.44
2018-07-01T07:18:52.265Z,40.56
2018-07-01T07:19:33.718Z,40.56
2018-07-01T07:20:14.252Z,40.44
2018-07-01T07:20:54.778Z,40.25
2018-07-01T07:21:35.300Z,40.44
2018-07-01T07:22:15.818Z,40.25
2018-07-01T07:22:57.378Z,40.25
2018-07-01T07:23:37.906Z,40.73
2018-07-01T07:24:18.436Z,40.83
2018-07-01T07:24:58.966Z,40.05
2018-07-01T07:25:40.013Z,40.25
2018-07-01T07:26:20.555Z,40.73
2018-07-01T07:27:01.083Z,40.73
2018-07-01T07:27:41.608Z,40.26
2018-07-01T07:28:22.118Z,40.36
2018-07-01T07:29:02.709Z,40.46
2018-07-01T07:29:43.205Z,40.56
2018-07-01T07:30:24.725Z,40.44
2018-07-01T07:31:05.244Z,40.44
2018-07-01T07:31:45.775Z,39.95
2018-07-01T07:32:27.136Z,40.54
2018-07-01T07:33:07.655Z,40.73
2018-07-01T07:33:48.238Z,40.64
2018-07-01T07:34:28.777Z,40.54
2018-07-01T07:35:09.305Z,40.83
2018-07-01T07:35:49.822Z,40.73
2018-07-01T07:36:34.165Z,40.73
2018-07-01T07:37:14.530Z,40.54
2018-07-01T07:37:55.935Z,40.44
2018-07-01T07:38:37.435Z,40.75
2018-07-01T07:39:20.724Z,40.73
2018-07-01T07:40:01.253Z,40.44
2018-07-01T07:40:43.310Z,40.46
2018-07-01T07:41:25.324Z,40.66
2018-07-01T07:42:05.854Z,40.34
2018-07-01T07:42:48.265Z,40.85
2018-07-01T07:43:28.739Z,40.54
2018-07-01T07:44:09.835Z,40.56
2018-07-01T07:44:51.265Z,40.66
2018-07-01T07:45:31.750Z,40.17
2018-07-01T07:46:12.828Z,39.95
2018-07-01T07:46:53.350Z,40.91
2018-07-01T07:47:34.516Z,40.83
2018-07-01T07:48:15.022Z,41.12
2018-07-01T07:48:55.544Z,40.92
2018-07-01T07:49:36.073Z,41.22
2018-07-01T07:50:16.590Z,40.92
2018-07-01T07:50:57.122Z,40.25
2018-07-01T07:51:37.642Z,40.34
2018-07-01T07:52:18.251Z,40.73
2018-07-01T07:52:58.761Z,40.61
2018-07-01T07:53:39.293Z,41.2
2018-07-01T07:54:20.332Z,41.3
2018-07-01T07:55:00.852Z,41.41
2018-07-01T07:55:42.127Z,41.31
2018-07-01T07:56:22.672Z,41.12
2018-07-01T07:57:03.184Z,41.41
2018-07-01T07:57:43.706Z,41.12
2018-07-01T07:58:24.223Z,41.43
2018-07-01T07:59:04.735Z,40.85
2018-07-01T07:59:45.252Z,41.02
2018-07-01T08:00:25.769Z,40.92
2018-07-01T08:01:06.286Z,40.83
2018-07-01T08:01:46.812Z,40.95
2018-07-01T08:02:27.324Z,40.85
2018-07-01T08:03:07.863Z,41.02
2018-07-01T08:03:48.422Z,41.02
2018-07-01T08:04:29.523Z,41.22
2018-07-01T08:05:10.298Z,41.61
2018-07-01T08:05:50.613Z,41.99
2018-07-01T08:06:31.125Z,41.99
2018-07-01T08:07:11.646Z,42.29
2018-07-01T08:07:53.128Z,42.17
2018-07-01T08:08:33.638Z,42.29
2018-07-01T08:09:15.743Z,42.29
2018-07-01T08:09:56.271Z,42.29
2018-07-01T08:10:36.793Z,41.61
2018-07-01T08:11:17.833Z,41.89
2018-07-01T08:11:59.247Z,42.29
2018-07-01T08:12:39.823Z,42.29
2018-07-01T08:13:22.240Z,41.61
2018-07-01T08:14:02.736Z,42.3
2018-07-01T08:14:43.262Z,42.4
2018-07-01T08:15:23.791Z,42.3
2018-07-01T08:16:04.302Z,41.53
2018-07-01T08:16:44.817Z,41.61
2018-07-01T08:17:26.066Z,42.09
2018-07-01T08:18:06.558Z,41.61
2018-07-01T08:18:47.086Z,42.29
2018-07-01T08:19:27.599Z,42.19
2018-07-01T08:20:08.748Z,42.21
2018-07-01T08:20:49.281Z,41.53
2018-07-01T08:21:30.736Z,41.82
2018-07-01T08:22:11.273Z,41.63
2018-07-01T08:22:52.335Z,41.31
2018-07-01T08:23:35.256Z,41.24
2018-07-01T08:24:15.792Z,41.53
2018-07-01T08:24:56.312Z,41.41
2018-07-01T08:25:36.837Z,41.61
2018-07-01T08:26:17.360Z,41.63
2018-07-01T08:26:58.749Z,41.41
2018-07-01T08:27:39.417Z,41.41
2018-07-01T08:28:19.934Z,41.43
2018-07-01T08:29:00.602Z,41.51
2018-07-01T08:29:41.575Z,42.3
2018-07-01T08:30:22.098Z,41.63
2018-07-01T08:31:02.622Z,42.11
2018-07-01T08:31:43.163Z,42.21
2018-07-01T08:32:23.697Z,42.38
2018-07-01T08:33:04.221Z,42.5
2018-07-01T08:33:45.451Z,42.11
2018-07-01T08:34:26.076Z,42.19
2018-07-01T08:35:06.547Z,42.19
2018-07-01T08:35:47.862Z,42.11
2018-07-01T08:36:29.231Z,42.21
2018-07-01T08:37:09.844Z,42.09
2018-07-01T08:37:50.252Z,42.09
2018-07-01T08:38:31.640Z,41.89
2018-07-01T08:39:12.145Z,41.99
2018-07-01T08:39:52.692Z,42.09
2018-07-01T08:40:34.041Z,42.09
2018-07-01T08:41:14.505Z,42.02
2018-07-01T08:41:55.010Z,42.09
2018-07-01T08:42:36.050Z,42.09
2018-07-01T08:43:16.586Z,42.29
2018-07-01T08:43:57.952Z,41.99
2018-07-01T08:44:39.713Z,42.09